createdAt,value
2022-10-26T00:01:15.081Z,20.23
2022-10-26T00:03:44.458Z,18.70
2022-10-26T00:06:13.726Z,22.65
2022-10-26T00:08:41.384Z,21.73
2022-10-26T00:11:09.098Z,23.63
2022-10-26T00:13:36.846Z,20.08
2022-10-26T00:16:16.649Z,21.13
2022-10-26T00:18:44.507Z,22.88
2022-10-26T00:21:12.152Z,22.45
2022-10-26T00:23:39.538Z,23.23
2022-10-26T00:26:07.158Z,25.92
2022-10-26T00:28:35.029Z,22.52
2022-10-26T00:31:03.777Z,22.35
2022-10-26T00:33:32.508Z,23.58
2022-10-26T00:35:59.900Z,22.95
2022-10-26T00:38:27.019Z,23.40
2022-10-26T00:40:53.884Z,21.77
2022-10-26T00:43:26.839Z,21.27
2022-10-26T00:45:56.709Z,26.58
2022-10-26T00:48:28.631Z,24.75
2022-10-26T00:50:58.834Z,27.02
2022-10-26T00:53:26.539Z,21.75
2022-10-26T00:55:54.525Z,21.30
2022-10-26T00:58:23.297Z,26.05
2022-10-26T01:00:50.413Z,27.55
2022-10-26T01:03:18.317Z,21.67
2022-10-26T01:05:47.787Z,22.10
2022-10-26T01:08:16.908Z,25.77
2022-10-26T01:10:44.108Z,22.15
2022-10-26T01:13:13.205Z,24.98
2022-10-26T01:15:51.800Z,30.65
2022-10-26T01:18:45.558Z,29.77
2022-10-26T01:21:30.262Z,25.95
2022-10-26T01:24:06.501Z,33.15
2022-10-26T01:26:45.555Z,27.08
2022-10-26T01:29:40.373Z,28.45
2022-10-26T01:32:14.411Z,29.38
2022-10-26T01:34:48.970Z,24.42
2022-10-26T01:37:28.846Z,29.90
2022-10-26T01:40:06.126Z,26.88
2022-10-26T01:42:37.278Z,28.73
2022-10-26T01:45:09.520Z,33.88
2022-10-26T01:47:39.258Z,27.80
2022-10-26T01:50:08.873Z,26.08
2022-10-26T01:55:07.740Z,30.92
2022-10-26T01:57:36.922Z,30.98
2022-10-26T02:00:09.646Z,28.15
2022-10-26T02:02:59.958Z,27.83
2022-10-26T02:05:29.868Z,25.73
2022-10-26T02:08:08.809Z,27.40
2022-10-26T02:10:57.590Z,26.40
2022-10-26T02:13:45.445Z,30.30
2022-10-26T02:16:27.735Z,32.20
2022-10-26T02:19:12.654Z,29.13
2022-10-26T02:21:49.030Z,30.52
2022-10-26T02:24:17.424Z,32.35
2022-10-26T02:26:47.290Z,35.00
2022-10-26T02:29:18.973Z,33.60
2022-10-26T02:31:49.247Z,31.40
2022-10-26T02:34:22.222Z,34.63
2022-10-26T02:36:50.919Z,32.13
2022-10-26T02:39:19.534Z,30.80
2022-10-26T02:41:48.860Z,32.60
2022-10-26T02:44:27.943Z,33.75
2022-10-26T02:49:22.736Z,35.85
2022-10-26T02:51:51.914Z,35.10
2022-10-26T02:54:33.611Z,31.67
2022-10-26T02:57:27.037Z,30.00
2022-10-26T02:59:54.224Z,31.15
2022-10-26T03:02:23.262Z,28.85
2022-10-26T03:04:51.264Z,32.53
2022-10-26T03:07:25.374Z,26.98
2022-10-26T03:09:52.211Z,28.23
2022-10-26T03:12:19.237Z,26.42
2022-10-26T03:14:46.484Z,29.98
2022-10-26T03:17:13.456Z,26.05
2022-10-26T03:19:40.183Z,25.50
2022-10-26T03:22:07.139Z,29.17
2022-10-26T03:24:34.046Z,28.88
2022-10-26T03:27:02.300Z,25.42
2022-10-26T03:29:29.700Z,23.70
2022-10-26T03:31:56.689Z,25.85
2022-10-26T03:34:23.487Z,22.15
2022-10-26T03:36:50.501Z,25.00
2022-10-26T03:39:17.542Z,26.38
2022-10-26T03:41:44.614Z,27.77
2022-10-26T03:44:11.431Z,24.58
2022-10-26T03:46:38.381Z,29.88
2022-10-26T03:49:05.309Z,22.63
2022-10-26T03:51:32.333Z,19.38
2022-10-26T03:53:59.066Z,23.85
2022-10-26T03:56:26.140Z,22.85
2022-10-26T03:58:52.949Z,19.40
2022-10-26T04:01:19.975Z,22.52
2022-10-26T04:03:46.803Z,22.40
2022-10-26T04:06:14.409Z,20.20
2022-10-26T04:08:41.189Z,19.58
2022-10-26T04:11:08.195Z,21.40
2022-10-26T04:13:35.194Z,22.02
2022-10-26T04:16:02.192Z,19.45
2022-10-26T04:18:28.943Z,22.27
2022-10-26T04:20:55.982Z,21.00
2022-10-26T04:23:22.781Z,22.55
2022-10-26T04:25:49.718Z,27.30
2022-10-26T04:28:16.491Z,19.63
2022-10-26T04:30:43.553Z,18.63
2022-10-26T04:33:10.387Z,22.05
2022-10-26T04:35:37.432Z,23.40
2022-10-26T04:38:06.306Z,19.80
2022-10-26T04:40:34.318Z,23.90
2022-10-26T04:43:01.111Z,18.20
2022-10-26T04:45:30.826Z,21.92
2022-10-26T04:48:00.608Z,25.33
2022-10-26T04:50:28.495Z,21.88
2022-10-26T04:52:55.504Z,18.45
2022-10-26T04:55:22.573Z,20.65
2022-10-26T04:57:49.668Z,24.55
2022-10-26T05:00:16.914Z,35.50
2022-10-26T05:02:43.795Z,38.17
2022-10-26T05:05:14.135Z,35.47
2022-10-26T05:07:42.126Z,33.92
2022-10-26T05:10:09.846Z,22.35
2022-10-26T05:12:36.626Z,24.73
2022-10-26T05:15:06.473Z,22.48
2022-10-26T05:17:35.288Z,22.00
2022-10-26T05:20:06.003Z,19.65
2022-10-26T05:22:32.807Z,32.70
2022-10-26T05:24:59.812Z,23.67
2022-10-26T05:27:26.591Z,28.52
2022-10-26T05:29:53.593Z,18.98
2022-10-26T05:32:20.362Z,23.67
2022-10-26T05:34:47.994Z,25.42
2022-10-26T05:37:14.752Z,23.35
2022-10-26T05:39:43.456Z,21.33
2022-10-26T05:42:10.217Z,32.80
2022-10-26T05:44:37.152Z,26.05
2022-10-26T05:47:03.954Z,39.63
2022-10-26T05:49:30.906Z,19.00
2022-10-26T05:51:57.650Z,16.60
2022-10-26T05:54:24.704Z,17.52
2022-10-26T05:56:51.735Z,23.60
2022-10-26T05:59:19.018Z,27.08
2022-10-26T06:02:04.571Z,24.55
2022-10-26T06:04:43.134Z,25.63
2022-10-26T06:07:15.259Z,23.63
2022-10-26T06:09:43.014Z,21.08
2022-10-26T06:12:13.470Z,16.77
2022-10-26T06:14:42.934Z,22.38
2022-10-26T06:17:41.285Z,16.48
2022-10-26T06:20:38.146Z,23.52
2022-10-26T06:23:41.836Z,19.45
2022-10-26T06:26:44.263Z,20.02
2022-10-26T06:29:35.050Z,23.02
2022-10-26T06:32:02.218Z,18.13
2022-10-26T06:34:44.204Z,13.68
2022-10-26T06:37:11.410Z,16.08
2022-10-26T06:39:44.298Z,13.63
2022-10-26T06:42:12.009Z,12.82
2022-10-26T06:44:39.083Z,14.20
2022-10-26T06:47:15.447Z,15.88
2022-10-26T06:50:23.389Z,13.77
2022-10-26T06:53:20.540Z,10.02
2022-10-26T06:55:49.984Z,12.32
2022-10-26T06:58:23.859Z,10.63
2022-10-26T07:00:53.698Z,9.48
2022-10-26T07:03:20.961Z,12.68
2022-10-26T07:05:47.807Z,10.15
2022-10-26T07:08:14.859Z,12.88
2022-10-26T07:10:42.355Z,11.02
2022-10-26T07:13:10.840Z,16.20
2022-10-26T07:15:39.165Z,8.05
2022-10-26T07:18:07.943Z,6.70
2022-10-26T07:20:38.496Z,11.13
2022-10-26T07:23:11.502Z,9.90
2022-10-26T07:25:40.543Z,11.18
2022-10-26T07:28:10.532Z,8.88
2022-10-26T07:30:39.992Z,9.93
2022-10-26T07:33:12.371Z,8.15
2022-10-26T07:35:40.102Z,6.10
2022-10-26T07:38:08.421Z,10.73
2022-10-26T07:40:37.105Z,7.77
2022-10-26T07:43:04.854Z,11.20
2022-10-26T07:45:31.919Z,8.25
2022-10-26T07:47:58.932Z,8.00
2022-10-26T07:50:26.339Z,8.13
2022-10-26T07:52:53.642Z,8.95
2022-10-26T07:55:20.628Z,7.45
2022-10-26T07:57:50.972Z,6.80
2022-10-26T08:00:21.609Z,9.02
2022-10-26T08:02:48.595Z,10.05
2022-10-26T08:05:15.421Z,9.77
2022-10-26T08:07:46.182Z,9.50
2022-10-26T08:10:14.528Z,8.98
2022-10-26T08:12:43.298Z,6.60
2022-10-26T08:15:10.506Z,10.35
2022-10-26T08:17:37.511Z,8.50
2022-10-26T08:20:04.710Z,11.30
2022-10-26T08:22:31.866Z,6.45
2022-10-26T08:24:58.662Z,9.48
2022-10-26T08:27:25.936Z,6.18
2022-10-26T08:29:52.720Z,6.40
2022-10-26T08:32:19.736Z,5.30
2022-10-26T08:34:46.510Z,6.47
2022-10-26T08:37:13.527Z,6.75
2022-10-26T08:39:40.291Z,4.22
2022-10-26T08:42:34.329Z,12.98
2022-10-26T08:45:07.134Z,4.60
2022-10-26T08:47:44.134Z,11.20
2022-10-26T08:50:39.234Z,6.03
2022-10-26T08:53:17.565Z,6.17
2022-10-26T08:55:53.338Z,6.57
2022-10-26T08:58:25.959Z,5.57
2022-10-26T09:00:53.035Z,8.57
2022-10-26T09:03:20.114Z,6.60
2022-10-26T09:06:25.320Z,7.70
2022-10-26T09:08:55.060Z,6.18
2022-10-26T09:11:21.790Z,6.93
2022-10-26T09:14:15.356Z,4.53
2022-10-26T09:16:50.567Z,5.45
2022-10-26T09:19:32.014Z,5.47
2022-10-26T09:22:04.793Z,5.00
2022-10-26T09:24:33.741Z,6.85
2022-10-26T09:29:42.711Z,3.58
2022-10-26T09:32:26.920Z,5.10
2022-10-26T09:34:58.044Z,4.35
2022-10-26T09:37:31.910Z,5.07
2022-10-26T09:40:11.064Z,3.90
2022-10-26T09:42:51.503Z,4.18
2022-10-26T09:45:24.583Z,4.82
2022-10-26T09:47:54.707Z,6.05
2022-10-26T09:50:29.583Z,7.65
2022-10-26T09:52:56.715Z,5.38
2022-10-26T09:55:23.576Z,9.20
2022-10-26T09:57:54.215Z,5.03
2022-10-26T10:00:23.796Z,7.72
2022-10-26T10:02:53.801Z,6.03
2022-10-26T10:08:23.686Z,5.90
2022-10-26T10:10:56.878Z,5.70
2022-10-26T10:13:26.799Z,6.18
2022-10-26T10:16:11.354Z,3.38
2022-10-26T10:18:40.214Z,4.25
2022-10-26T10:21:08.355Z,4.88
2022-10-26T10:23:46.422Z,3.63
2022-10-26T10:26:13.222Z,10.43
2022-10-26T10:28:42.461Z,2.88
2022-10-26T10:33:49.708Z,4.38
2022-10-26T10:36:20.375Z,5.75
2022-10-26T10:38:49.627Z,5.75
2022-10-26T10:41:39.439Z,3.45
2022-10-26T10:44:25.375Z,6.00
2022-10-26T10:47:00.810Z,6.72
2022-10-26T10:49:30.079Z,5.72
2022-10-26T10:54:35.110Z,4.68
2022-10-26T10:57:13.759Z,5.47
2022-10-26T11:00:07.129Z,5.00
2022-10-26T11:03:04.369Z,4.63
2022-10-26T11:05:55.769Z,7.25
2022-10-26T11:08:37.897Z,5.93
2022-10-26T11:11:10.523Z,5.13
2022-10-26T11:13:48.709Z,8.07
2022-10-26T11:16:23.732Z,5.28
2022-10-26T11:19:03.094Z,6.68
2022-10-26T11:21:31.552Z,6.35
2022-10-26T11:23:58.346Z,5.23
2022-10-26T11:26:33.523Z,6.72
2022-10-26T11:29:07.416Z,3.92
2022-10-26T11:31:44.985Z,4.25
2022-10-26T11:34:26.561Z,6.78
2022-10-26T11:37:05.117Z,2.40
2022-10-26T11:39:44.016Z,4.50
2022-10-26T11:42:19.708Z,5.63
2022-10-26T11:44:59.428Z,4.95
2022-10-26T11:47:44.046Z,3.38
2022-10-26T11:50:17.649Z,6.88
2022-10-26T11:52:51.957Z,2.40
2022-10-26T11:55:21.046Z,5.03
2022-10-26T12:00:19.081Z,1.80
2022-10-26T12:03:09.153Z,4.05
2022-10-26T12:05:50.623Z,4.75
2022-10-26T12:08:27.262Z,3.58
2022-10-26T12:11:29.725Z,5.03
2022-10-26T12:14:32.954Z,2.67
2022-10-26T12:17:20.992Z,3.40
2022-10-26T12:19:47.902Z,4.45
2022-10-26T12:22:17.544Z,9.13
2022-10-26T12:25:11.139Z,3.47
2022-10-26T12:27:40.763Z,4.05
2022-10-26T12:30:19.956Z,3.55
2022-10-26T12:32:50.071Z,3.55
2022-10-26T12:35:37.368Z,2.88
2022-10-26T12:38:29.034Z,9.13
2022-10-26T12:41:10.749Z,5.78
2022-10-26T12:43:39.999Z,12.68
2022-10-26T12:46:13.249Z,10.70
2022-10-26T12:48:44.768Z,9.52
2022-10-26T12:51:26.806Z,17.42
2022-10-26T12:54:21.245Z,9.88
2022-10-26T12:57:06.465Z,4.07
2022-10-26T12:59:40.731Z,4.53
2022-10-26T13:02:37.005Z,3.60
2022-10-26T13:05:28.490Z,4.78
2022-10-26T13:08:03.577Z,4.95
2022-10-26T13:10:30.844Z,2.88
2022-10-26T13:13:01.166Z,3.95
2022-10-26T13:15:31.211Z,8.27
2022-10-26T13:18:09.218Z,8.70
2022-10-26T13:20:38.072Z,5.77
2022-10-26T13:23:19.638Z,3.00
2022-10-26T13:26:06.038Z,6.18
2022-10-26T13:28:38.821Z,4.13
2022-10-26T13:31:20.982Z,5.93
2022-10-26T13:33:52.444Z,7.15
2022-10-26T13:36:38.702Z,4.53
2022-10-26T13:39:13.054Z,4.70
2022-10-26T13:41:43.726Z,6.90
2022-10-26T13:44:25.872Z,7.13
2022-10-26T13:46:59.442Z,7.70
2022-10-26T13:49:36.606Z,6.10
2022-10-26T13:52:05.742Z,8.68
2022-10-26T13:54:44.837Z,16.42
2022-10-26T13:59:43.135Z,17.77
2022-10-26T14:02:30.576Z,6.68
2022-10-26T14:05:02.634Z,9.27
2022-10-26T14:07:54.145Z,7.70
2022-10-26T14:10:29.550Z,6.05
2022-10-26T14:12:57.642Z,10.05
2022-10-26T14:15:30.949Z,6.45
2022-10-26T14:17:59.857Z,7.97
2022-10-26T14:22:55.090Z,7.95
2022-10-26T14:25:42.142Z,7.40
2022-10-26T14:28:26.419Z,10.25
2022-10-26T14:30:53.814Z,14.75
2022-10-26T14:33:27.660Z,44.00
2022-10-26T14:35:55.856Z,40.28
2022-10-26T14:38:26.997Z,40.80
2022-10-26T14:40:57.452Z,65.63
2022-10-26T14:43:25.948Z,56.22
2022-10-26T14:45:54.499Z,44.17
2022-10-26T14:48:33.283Z,35.65
2022-10-26T14:51:28.280Z,22.85
2022-10-26T14:53:58.837Z,12.10
2022-10-26T14:56:34.753Z,15.68
2022-10-26T14:59:19.179Z,9.35
2022-10-26T15:01:55.685Z,14.30
2022-10-26T15:04:37.698Z,8.82
2022-10-26T15:07:09.014Z,8.32
2022-10-26T15:09:43.169Z,15.30
2022-10-26T15:12:23.219Z,9.95
2022-10-26T15:14:51.303Z,11.45
2022-10-26T15:17:24.962Z,15.80
2022-10-26T15:19:52.323Z,112.97
2022-10-26T15:22:30.975Z,75.70
2022-10-26T15:25:05.803Z,52.00
2022-10-26T15:27:33.003Z,37.65
2022-10-26T15:30:25.525Z,55.30
2022-10-26T15:32:55.881Z,138.45
2022-10-26T15:35:25.918Z,109.82
2022-10-26T15:37:55.169Z,116.50
2022-10-26T15:40:23.261Z,85.13
2022-10-26T15:42:52.999Z,128.90
2022-10-26T15:45:23.954Z,169.52
2022-10-26T15:47:52.715Z,154.10
2022-10-26T15:50:22.399Z,215.93
2022-10-26T15:52:50.794Z,296.20
2022-10-26T15:55:17.782Z,281.87
2022-10-26T15:57:45.062Z,239.30
2022-10-26T16:00:16.957Z,213.88
2022-10-26T16:02:45.593Z,213.00
2022-10-26T16:05:16.094Z,159.33
2022-10-26T16:07:46.801Z,149.23
2022-10-26T16:10:25.184Z,137.25
2022-10-26T16:12:52.902Z,132.93
2022-10-26T16:15:24.852Z,113.85
2022-10-26T16:17:52.767Z,127.63
2022-10-26T16:20:24.650Z,141.88
2022-10-26T16:22:52.881Z,162.32
2022-10-26T16:25:22.844Z,156.63
2022-10-26T16:27:50.731Z,155.23
2022-10-26T16:30:18.963Z,133.23
2022-10-26T16:32:46.198Z,120.25
2022-10-26T16:35:13.522Z,109.07
2022-10-26T16:37:40.582Z,137.18
2022-10-26T16:40:08.569Z,186.95
2022-10-26T16:42:35.782Z,141.63
2022-10-26T16:45:03.201Z,135.60
2022-10-26T16:47:35.621Z,160.32
2022-10-26T16:50:03.881Z,158.55
2022-10-26T16:52:31.119Z,163.43
2022-10-26T16:54:57.883Z,158.00
2022-10-26T16:57:24.904Z,162.40
2022-10-26T16:59:51.812Z,135.55
2022-10-26T17:02:18.987Z,135.05
2022-10-26T17:04:45.918Z,114.43
2022-10-26T17:07:12.926Z,108.45
2022-10-26T17:09:39.714Z,101.90
2022-10-26T17:12:07.003Z,94.50
2022-10-26T17:14:34.369Z,78.57
2022-10-26T17:17:01.326Z,73.95
2022-10-26T17:19:28.119Z,73.13
2022-10-26T17:21:55.160Z,76.88
2022-10-26T17:24:21.895Z,65.72
2022-10-26T17:26:48.845Z,65.70
2022-10-26T17:29:15.706Z,90.18
2022-10-26T17:31:42.674Z,104.50
2022-10-26T17:34:09.422Z,90.22
2022-10-26T17:36:36.415Z,100.88
2022-10-26T17:39:03.355Z,118.60
2022-10-26T17:41:30.468Z,104.40
2022-10-26T17:43:57.259Z,124.88
2022-10-26T17:46:26.193Z,106.50
2022-10-26T17:49:00.497Z,102.68
2022-10-26T17:51:29.294Z,109.18
2022-10-26T17:53:57.109Z,107.30
2022-10-26T17:56:26.884Z,115.28
2022-10-26T17:58:58.930Z,95.88
2022-10-26T18:01:27.449Z,104.28
2022-10-26T18:03:54.871Z,104.87
2022-10-26T18:06:22.480Z,107.93
2022-10-26T18:08:49.368Z,84.22
2022-10-26T18:11:26.530Z,96.35
2022-10-26T18:13:55.867Z,107.63
2022-10-26T18:16:25.293Z,113.13
2022-10-26T18:21:29.699Z,120.65
2022-10-26T18:23:56.545Z,111.25
2022-10-26T18:26:26.575Z,131.73
2022-10-26T18:28:54.153Z,111.15
2022-10-26T18:31:22.916Z,118.33
2022-10-26T18:33:59.123Z,93.72
2022-10-26T18:36:27.167Z,120.53
2022-10-26T18:38:54.580Z,87.18
2022-10-26T18:41:23.420Z,86.47
2022-10-26T18:43:52.970Z,123.73
2022-10-26T18:46:25.204Z,169.77
2022-10-26T18:48:52.725Z,173.85
2022-10-26T18:51:25.328Z,228.20
2022-10-26T18:53:52.418Z,86.53
2022-10-26T18:56:21.458Z,70.85
2022-10-26T18:58:53.554Z,86.93
2022-10-26T19:01:25.786Z,92.03
2022-10-26T19:03:54.821Z,88.15
2022-10-26T19:08:50.120Z,73.38
2022-10-26T19:11:19.251Z,80.37
2022-10-26T19:13:46.599Z,64.68
2022-10-26T19:16:33.235Z,74.90
2022-10-26T19:19:05.834Z,45.13
2022-10-26T19:21:32.814Z,57.08
2022-10-26T19:24:01.281Z,77.68
2022-10-26T19:26:34.317Z,54.65
2022-10-26T19:29:09.841Z,52.20
2022-10-26T19:31:37.870Z,46.17
2022-10-26T19:34:04.980Z,46.28
2022-10-26T19:36:32.990Z,42.00
2022-10-26T19:38:59.948Z,38.15
2022-10-26T19:41:28.234Z,40.80
2022-10-26T19:43:55.674Z,49.92
2022-10-26T19:46:25.387Z,41.25
2022-10-26T19:48:58.549Z,34.75
2022-10-26T19:51:27.681Z,30.77
2022-10-26T19:53:57.829Z,30.42
2022-10-26T19:56:27.646Z,33.83
2022-10-26T19:58:55.805Z,31.40
2022-10-26T20:01:23.008Z,33.37
2022-10-26T20:03:49.812Z,32.58
2022-10-26T20:06:18.374Z,31.35
2022-10-26T20:08:47.249Z,31.33
2022-10-26T20:11:16.253Z,27.52
2022-10-26T20:13:44.771Z,27.92
2022-10-26T20:16:12.943Z,29.63
2022-10-26T20:18:44.043Z,29.65
2022-10-26T20:21:15.603Z,21.58
2022-10-26T20:23:43.420Z,25.17
2022-10-26T20:26:18.238Z,23.70
2022-10-26T20:28:48.381Z,29.85
2022-10-26T20:31:15.421Z,21.88
2022-10-26T20:33:42.304Z,23.25
2022-10-26T20:36:09.612Z,24.07
2022-10-26T20:38:36.845Z,22.25
2022-10-26T20:41:07.737Z,22.40
2022-10-26T20:43:39.061Z,23.13
2022-10-26T20:46:07.573Z,23.02
2022-10-26T20:48:34.762Z,27.73
2022-10-26T20:51:08.015Z,24.55
2022-10-26T20:53:47.208Z,24.48
2022-10-26T20:56:23.379Z,24.73
2022-10-26T20:58:53.425Z,23.92
2022-10-26T21:01:27.601Z,26.40
2022-10-26T21:03:55.971Z,19.85
2022-10-26T21:06:23.264Z,24.52
2022-10-26T21:08:53.891Z,26.80
2022-10-26T21:11:22.478Z,24.23
2022-10-26T21:13:50.428Z,22.50
2022-10-26T21:16:17.792Z,27.67
2022-10-26T21:18:44.643Z,25.63
2022-10-26T21:21:11.701Z,28.92
2022-10-26T21:23:40.650Z,26.37
2022-10-26T21:26:08.732Z,26.80
2022-10-26T21:28:37.921Z,22.00
2022-10-26T21:31:10.669Z,21.45
2022-10-26T21:33:37.732Z,20.05
2022-10-26T21:36:07.600Z,21.73
2022-10-26T21:38:35.112Z,19.77
2022-10-26T21:41:09.066Z,20.20
2022-10-26T21:43:37.513Z,20.92
2022-10-26T21:46:04.738Z,13.00
2022-10-26T21:48:33.722Z,20.03
2022-10-26T21:53:29.398Z,24.40
2022-10-26T21:56:11.248Z,22.52
2022-10-26T21:58:38.686Z,18.77
2022-10-26T22:01:09.624Z,19.13
2022-10-26T22:03:37.421Z,20.17
2022-10-26T22:06:05.345Z,19.80
2022-10-26T22:08:32.217Z,22.92
2022-10-26T22:11:04.520Z,18.92
2022-10-26T22:13:31.260Z,21.27
2022-10-26T22:16:09.898Z,21.73
2022-10-26T22:18:38.832Z,20.25
2022-10-26T22:21:07.194Z,16.60
2022-10-26T22:23:36.553Z,18.67
2022-10-26T22:26:27.117Z,15.52
2022-10-26T22:28:56.213Z,18.38
2022-10-26T22:33:56.506Z,17.02
2022-10-26T22:36:24.582Z,19.42
2022-10-26T22:38:52.025Z,19.98
2022-10-26T22:41:20.757Z,15.40
2022-10-26T22:43:48.057Z,18.48
2022-10-26T22:46:17.870Z,15.80
2022-10-26T22:48:47.736Z,15.70
2022-10-26T22:51:17.292Z,17.52
2022-10-26T22:56:12.959Z,16.67
2022-10-26T22:58:40.511Z,15.18
2022-10-26T23:01:13.298Z,18.63
2022-10-26T23:03:41.084Z,14.45
2022-10-26T23:06:10.618Z,14.95
2022-10-26T23:11:08.434Z,17.45
2022-10-26T23:13:35.867Z,18.35
2022-10-26T23:16:08.000Z,13.55
2022-10-26T23:18:35.853Z,17.35
2022-10-26T23:21:04.407Z,16.05
2022-10-26T23:23:31.473Z,17.23
2022-10-26T23:26:10.226Z,15.30
2022-10-26T23:28:36.999Z,18.27
2022-10-26T23:31:04.239Z,19.50
2022-10-26T23:33:32.037Z,18.90
2022-10-26T23:35:59.444Z,16.88
2022-10-26T23:38:26.277Z,15.32
2022-10-26T23:40:55.644Z,15.63
2022-10-26T23:43:22.762Z,17.58
2022-10-26T23:45:50.213Z,19.75
2022-10-26T23:48:17.628Z,17.88
2022-10-26T23:50:46.165Z,18.83
2022-10-26T23:53:14.477Z,18.93
2022-10-26T23:55:43.741Z,21.67
2022-10-26T23:58:11.401Z,22.95
